Time;durP1;ratioP1;P1;durP2;ratioP2;P2;SDS_P1;SDS_P2;PMS_P1;PMS_P2;Temp;Humidity;BMP_temperature;BMP_pressure;BME280_temperature;BME280_humidity;BME280_pressure;Samples;Min_cycle;Max_cycle;Signal;HPM_P1;HPM_P2
2022/05/05 00:01:32;;;;;;;;;11.50;9.00;;;;;20.33;39.18;101601.06;5080015;27;45402;-49
2022/05/05 00:03:58;;;;;;;;;8.50;8.50;;;;;20.32;38.94;101596.72;5077860;28;47343;-50
2022/05/05 00:06:24;;;;;;;;;9.00;9.00;;;;;20.32;38.77;101602.00;5079250;27;46087;-48
2022/05/05 00:08:49;;;;;;;;;12.25;11.50;;;;;20.30;38.89;101593.28;5079222;27;45839;-43
2022/05/05 00:16:42;;;;;;;;;10.25;10.00;;;;;20.25;39.36;101589.97;5078845;28;45978;-45
2022/05/05 00:19:07;;;;;;;;;11.50;9.25;;;;;20.33;39.10;101605.47;5079093;27;45425;-54
2022/05/05 00:21:33;;;;;;;;;8.00;5.75;;;;;20.32;39.32;101607.25;5079629;28;45294;-49
2022/05/05 00:23:58;;;;;;;;;9.50;8.50;;;;;20.32;39.33;101607.25;5078631;28;45306;-49
2022/05/05 00:26:23;;;;;;;;;7.00;5.50;;;;;20.32;39.22;101607.25;5078743;28;45326;-50
2022/05/05 00:28:49;;;;;;;;;13.00;11.50;;;;;20.32;38.78;101606.38;5079082;28;45791;-52
2022/05/05 00:31:14;;;;;;;;;11.50;10.50;;;;;20.32;39.15;101607.25;5079066;28;45750;-52
2022/05/05 00:33:39;;;;;;;;;9.00;9.00;;;;;20.32;39.44;101612.53;5078490;28;51876;-58
2022/05/05 00:36:05;;;;;;;;;9.25;9.25;;;;;20.32;39.35;101607.25;5078821;28;45431;-51
2022/05/05 00:38:31;;;;;;;;;10.00;10.00;;;;;20.31;39.00;101608.16;5079110;27;45443;-58
2022/05/05 00:40:56;;;;;;;;;8.25;8.25;;;;;20.32;39.02;101606.38;5079012;27;45588;-57
2022/05/05 00:43:22;;;;;;;;;9.25;9.25;;;;;20.31;39.41;101602.91;5078429;28;45341;-59
2022/05/05 00:45:48;;;;;;;;;8.50;7.50;;;;;20.30;38.92;101598.56;5077333;28;45971;-59
2022/05/05 00:48:14;;;;;;;;;9.25;9.25;;;;;20.31;39.22;101600.28;5078798;27;45258;-59
2022/05/05 00:50:40;;;;;;;;;11.25;9.00;;;;;20.28;38.99;101600.41;5078679;28;45238;-55
2022/05/05 00:53:05;;;;;;;;;8.25;8.25;;;;;20.24;39.24;101589.16;5078373;27;45600;-54
2022/05/05 00:55:33;;;;;;;;;12.75;9.75;;;;;20.32;39.22;101609.88;5078759;27;45265;-58
2022/05/05 00:58:01;;;;;;;;;10.00;10.00;;;;;20.32;39.26;101603.75;5078451;28;45361;-58
2022/05/05 01:00:26;;;;;;;;;9.50;7.50;;;;;20.31;39.23;101613.44;5077489;28;45551;-59
2022/05/05 01:02:54;;;;;;;;;8.75;8.75;;;;;20.31;39.14;101609.94;5077997;28;46095;-57
2022/05/05 01:05:19;;;;;;;;;10.00;9.00;;;;;20.31;38.91;101604.66;5078339;28;45223;-55
2022/05/05 01:07:46;;;;;;;;;12.50;8.25;;;;;20.30;39.26;101606.47;5078254;28;45265;-58
2022/05/05 01:10:12;;;;;;;;;7.25;7.25;;;;;20.30;38.81;101603.81;5078408;27;45431;-53
2022/05/05 01:12:37;;;;;;;;;9.25;9.25;;;;;20.31;38.98;101600.28;5077923;27;46023;-56
2022/05/05 01:15:03;;;;;;;;;9.00;7.00;;;;;20.29;39.34;101607.38;5077875;28;45388;-58
2022/05/05 01:17:28;;;;;;;;;9.25;9.25;;;;;20.31;38.99;101610.81;5078134;27;45329;-56
2022/05/05 01:19:54;;;;;;;;;9.25;8.25;;;;;20.30;39.08;101611.72;5078266;28;45370;-58
2022/05/05 01:22:19;;;;;;;;;10.50;9.00;;;;;20.29;38.88;101607.38;5077840;27;45860;-59
2022/05/05 01:30:13;;;;;;;;;8.50;7.25;;;;;20.29;39.31;101610.00;5078112;28;45327;-58
2022/05/05 01:32:39;;;;;;;;;9.50;7.75;;;;;20.29;39.06;101612.63;5077816;28;46556;-57
2022/05/05 01:35:05;;;;;;;;;11.50;9.00;;;;;20.26;39.32;101612.75;5078161;27;45472;-57
2022/05/05 01:37:30;;;;;;;;;10.00;7.00;;;;;20.29;39.24;101612.63;5077823;27;45248;-54
2022/05/05 01:39:56;;;;;;;;;7.75;7.75;;;;;20.29;39.35;101611.78;5077927;27;45298;-56
2022/05/05 01:42:22;;;;;;;;;6.00;5.00;;;;;20.28;39.08;101613.56;5076213;28;46789;-56
2022/05/05 01:44:47;;;;;;;;;6.50;6.25;;;;;20.25;39.22;101600.50;5077713;28;45269;-59
2022/05/05 01:47:13;;;;;;;;;8.50;8.50;;;;;20.27;38.95;101608.38;5077896;28;45212;-54
2022/05/05 01:49:38;;;;;;;;;7.50;7.25;;;;;20.26;39.16;101599.59;5078127;28;45377;-50
2022/05/05 01:52:12;;;;;;;;;8.00;7.00;;;;;20.25;39.02;101605.78;5077694;27;45215;-58
2022/05/05 01:54:38;;;;;;;;;7.25;7.25;;;;;20.27;38.74;101608.38;5077936;28;45704;-59
2022/05/05 01:57:04;;;;;;;;;7.00;6.00;;;;;20.26;38.91;101602.22;5078006;28;45217;-58
2022/05/05 01:59:30;;;;;;;;;7.00;7.00;;;;;20.27;38.89;101608.38;5077862;27;45287;-59
2022/05/05 02:01:56;;;;;;;;;5.25;5.25;;;;;20.24;38.89;101604.94;5076843;27;46161;-59
2022/05/05 02:04:21;;;;;;;;;9.00;6.00;;;;;20.25;39.17;101608.41;5077366;27;45390;-59
2022/05/05 02:06:46;;;;;;;;;8.50;7.00;;;;;20.23;38.80;101610.25;5077407;28;45330;-57
2022/05/05 02:09:12;;;;;;;;;7.67;6.67;;;;;20.27;38.88;101618.91;5077219;28;45374;-58
2022/05/05 02:11:41;;;;;;;;;7.00;5.25;;;;;20.24;38.82;101614.59;5077068;28;47106;-59
2022/05/05 02:14:07;;;;;;;;;7.00;6.75;;;;;20.25;38.76;101616.31;5077583;27;45756;-57
2022/05/05 02:16:32;;;;;;;;;7.00;7.00;;;;;20.24;38.69;101615.47;5077336;27;45508;-59
2022/05/05 02:18:58;;;;;;;;;7.75;5.25;;;;;20.24;39.16;101607.56;5076125;28;45355;-58
2022/05/05 02:21:23;;;;;;;;;7.00;5.25;;;;;20.24;38.73;101611.97;5076972;28;45243;-57
2022/05/05 02:23:48;;;;;;;;;4.25;4.25;;;;;20.24;39.26;101614.59;5077152;28;45195;-58
2022/05/05 02:26:13;;;;;;;;;6.00;6.00;;;;;20.24;38.65;101611.97;5077338;28;45200;-59
2022/05/05 02:28:39;;;;;;;;;7.25;5.25;;;;;20.23;39.17;101607.63;5077639;28;45454;-58
2022/05/05 02:31:04;;;;;;;;;5.25;5.00;;;;;20.23;38.76;101610.25;5077122;28;46419;-60
2022/05/05 02:33:29;;;;;;;;;8.00;8.00;;;;;20.21;39.12;101610.31;5077235;27;45889;-58
2022/05/05 02:38:46;;;;;;;;;9.00;6.50;;;;;20.21;38.59;101593.69;5076507;28;45252;-60
2022/05/05 02:41:12;;;;;;;;;7.50;6.00;;;;;20.22;39.11;101600.66;5076771;28;46223;-57
2022/05/05 02:43:37;;;;;;;;;1.75;1.50;;;;;20.21;39.17;101598.94;5077067;27;45200;-55
2022/05/05 02:46:02;;;;;;;;;5.25;5.25;;;;;20.19;38.86;101592.88;5077033;27;45415;-50
2022/05/05 02:48:28;;;;;;;;;4.25;4.25;;;;;20.21;39.18;101598.94;5077360;27;45555;-52
2022/05/05 02:50:53;;;;;;;;;8.00;8.00;;;;;20.21;38.74;101596.31;5076849;27;45303;-52
2022/05/05 02:56:02;;;;;;;;;6.00;6.00;;;;;20.21;39.17;101598.94;5076820;28;45359;-43
2022/05/05 02:58:29;;;;;;;;;8.00;5.75;;;;;20.20;39.05;101598.06;5077089;28;45377;-44
2022/05/05 03:00:55;;;;;;;;;5.00;5.00;;;;;20.18;39.09;101593.81;5076566;28;46248;-51
2022/05/05 03:03:20;;;;;;;;;4.75;4.25;;;;;20.17;38.68;101600.00;5074879;28;45383;-50
2022/05/05 03:05:46;;;;;;;;;6.25;5.75;;;;;20.19;38.55;101598.16;5075568;28;45327;-56
2022/05/05 03:08:12;;;;;;;;;6.00;6.00;;;;;20.18;38.86;101599.06;5076925;27;45394;-48
2022/05/05 03:10:38;;;;;;;;;7.00;7.00;;;;;20.19;39.20;101606.91;5076614;27;45463;-44
2022/05/05 03:13:04;;;;;;;;;7.00;7.00;;;;;20.17;39.08;101605.25;5076292;28;45858;-46
2022/05/05 03:15:30;;;;;;;;;7.00;6.00;;;;;20.19;38.70;101598.16;5076596;27;45339;-50
2022/05/05 03:17:55;;;;;;;;;6.00;6.00;;;;;20.19;38.81;101606.06;5076663;27;45534;-49
2022/05/05 03:20:20;;;;;;;;;8.00;5.75;;;;;20.18;38.82;101593.81;5076228;28;46573;-45
2022/05/05 03:22:45;;;;;;;;;5.75;5.00;;;;;20.18;39.29;101604.34;5075559;28;45454;-52
2022/05/05 03:25:11;;;;;;;;;4.00;4.00;;;;;20.18;38.56;101597.28;5080199;28;45381;-47
2022/05/05 03:27:37;;;;;;;;;8.25;6.00;;;;;20.17;39.02;101597.34;5080285;27;45679;-47
2022/05/05 03:30:04;;;;;;;;;7.50;7.50;;;;;20.19;38.95;101606.06;5079863;27;46351;-51
2022/05/05 03:32:32;;;;;;;;;7.00;6.00;;;;;20.18;39.38;101599.06;5079889;27;45707;-53
2022/05/05 03:34:58;;;;;;;;;5.75;5.75;;;;;20.18;39.20;101601.72;5080022;27;45408;-48
2022/05/05 03:37:23;;;;;;;;;6.00;6.00;;;;;20.14;39.06;101593.09;5078838;28;45570;-49
2022/05/05 03:39:48;;;;;;;;;5.00;5.00;;;;;20.15;39.03;101599.19;5079877;27;45509;-54
2022/05/05 03:42:14;;;;;;;;;7.25;7.25;;;;;20.16;39.13;101601.78;5079810;28;45359;-52
2022/05/05 03:44:39;;;;;;;;;9.25;5.00;;;;;20.17;39.25;101600.00;5079994;28;45403;-51
2022/05/05 03:47:05;;;;;;;;;6.25;6.25;;;;;20.17;39.08;101607.88;5080017;28;45389;-47
2022/05/05 03:49:30;;;;;;;;;5.00;4.75;;;;;20.17;39.42;101613.16;5079581;28;45476;-47
2022/05/05 03:51:56;;;;;;;;;6.25;4.75;;;;;20.17;39.52;101618.41;5079516;28;45431;-46
2022/05/05 03:54:24;;;;;;;;;6.00;6.00;;;;;20.17;38.95;101623.69;5079672;27;45320;-54
2022/05/05 03:56:49;;;;;;;;;7.50;4.25;;;;;20.15;39.35;101620.25;5079892;27;45382;-45
2022/05/05 03:59:15;;;;;;;;;7.00;6.00;;;;;20.15;39.19;101621.13;5079261;27;46286;-48
2022/05/05 04:01:40;;;;;;;;;5.00;4.00;;;;;20.16;39.46;101621.97;5079337;28;54120;-50
2022/05/05 04:04:05;;;;;;;;;8.25;5.25;;;;;20.16;39.56;101621.97;5079533;28;45312;-51
2022/05/05 04:06:30;;;;;;;;;6.75;5.50;;;;;20.16;39.51;101627.22;5079445;27;45520;-58
2022/05/05 04:08:56;;;;;;;;;6.25;6.25;;;;;20.15;39.00;101618.50;5079294;28;45997;-55
2022/05/05 04:11:21;;;;;;;;;5.50;4.50;;;;;20.14;39.18;101613.25;5079317;27;45235;-47
2022/05/05 04:13:47;;;;;;;;;5.00;4.50;;;;;20.15;39.07;101620.25;5079212;27;45349;-56
2022/05/05 04:16:12;;;;;;;;;6.25;6.00;;;;;20.15;39.67;101631.66;5079799;28;45565;-54
2022/05/05 04:18:38;;;;;;;;;6.00;6.00;;;;;20.13;39.04;101622.94;5079093;28;45659;-56
2022/05/05 04:21:04;;;;;;;;;5.50;4.00;;;;;20.14;39.23;101624.66;5079062;28;45448;-56
2022/05/05 04:23:29;;;;;;;;;6.50;5.75;;;;;20.15;39.22;101630.78;5079150;28;45394;-58
2022/05/05 04:25:55;;;;;;;;;4.50;3.50;;;;;20.14;39.56;101626.44;5079264;28;45525;-58
2022/05/05 04:28:21;;;;;;;;;6.25;5.00;;;;;20.14;39.37;101627.31;5077612;28;46230;-58
2022/05/05 04:30:47;;;;;;;;;5.75;5.25;;;;;20.14;39.52;101634.31;5078902;27;45357;-58
2022/05/05 04:33:13;;;;;;;;;5.25;5.25;;;;;20.12;39.31;101629.13;5079253;27;45373;-58
2022/05/05 04:35:39;;;;;;;;;8.25;5.25;;;;;20.14;39.49;101643.09;5078713;28;45553;-58
2022/05/05 04:38:04;;;;;;;;;8.50;6.25;;;;;20.13;39.57;101641.38;5078715;28;45895;-57
2022/05/05 04:40:31;;;;;;;;;7.50;6.50;;;;;20.11;39.00;101635.31;5078792;28;45364;-58
2022/05/05 04:42:56;;;;;;;;;7.00;5.00;;;;;20.14;39.21;101644.84;5078823;27;45363;-58
2022/05/05 04:45:22;;;;;;;;;7.50;6.50;;;;;20.13;39.36;101646.63;5079064;27;45530;-55
2022/05/05 04:47:47;;;;;;;;;5.00;4.00;;;;;20.13;39.51;101645.75;5078578;27;45394;-55
2022/05/05 04:50:13;;;;;;;;;5.00;5.00;;;;;20.13;39.67;101638.75;5078976;27;45356;-57
2022/05/05 04:52:38;;;;;;;;;5.75;5.75;;;;;20.13;39.74;101646.63;5078725;27;45518;-58
2022/05/05 04:55:04;;;;;;;;;4.50;4.00;;;;;20.13;39.31;101648.41;5078873;27;45533;-57
2022/05/05 04:57:29;;;;;;;;;4.25;3.00;;;;;20.11;39.47;101647.63;5077808;27;46203;-56
2022/05/05 04:59:54;;;;;;;;;8.25;5.75;;;;;20.12;39.04;101641.44;5078342;27;45377;-59
2022/05/05 05:02:20;;;;;;;;;4.50;4.50;;;;;20.12;39.76;101651.97;5078545;28;45268;-59
2022/05/05 05:04:45;;;;;;;;;6.50;6.00;;;;;20.11;39.70;101648.47;5078838;27;45481;-57
2022/05/05 05:07:11;;;;;;;;;4.50;4.50;;;;;20.12;39.91;101650.19;5078264;27;45338;-58
2022/05/05 05:09:36;;;;;;;;;7.00;7.00;;;;;20.12;39.82;101654.59;5077716;27;45323;-53
2022/05/05 05:12:02;;;;;;;;;8.00;7.25;;;;;20.12;39.84;101659.88;5078270;27;45459;-58
2022/05/05 05:14:27;;;;;;;;;9.75;7.50;;;;;20.10;39.64;101653.81;5078419;27;45504;-58
2022/05/05 05:16:53;;;;;;;;;9.00;8.00;;;;;20.10;39.50;101661.69;5078175;28;46134;-58
2022/05/05 05:19:19;;;;;;;;;6.50;6.50;;;;;20.12;39.61;101668.59;5077966;28;48362;-49
2022/05/05 05:21:44;;;;;;;;;6.50;6.50;;;;;20.11;39.66;101666.91;5078655;27;45257;-55
2022/05/05 05:24:10;;;;;;;;;5.25;5.25;;;;;20.12;39.99;101670.41;5078211;27;45322;-49
2022/05/05 05:26:35;;;;;;;;;8.50;8.00;;;;;20.11;39.98;101671.31;5077683;28;48158;-54
2022/05/05 05:29:00;;;;;;;;;9.50;8.00;;;;;20.11;39.50;101673.94;5077870;28;45177;-57
2022/05/05 05:31:26;;;;;;;;;8.00;8.00;;;;;20.10;40.01;101678.34;5078054;27;45283;-56
2022/05/05 05:33:51;;;;;;;;;10.25;7.50;;;;;20.10;39.47;101680.13;5078106;27;45637;-50
2022/05/05 05:36:18;;;;;;;;;9.50;9.50;;;;;20.11;40.07;101687.09;5078174;28;51220;-59
2022/05/05 05:38:44;;;;;;;;;8.25;8.25;;;;;20.10;40.12;101690.66;5078000;28;45390;-55
2022/05/05 05:41:09;;;;;;;;;7.00;7.00;;;;;20.10;40.27;101690.66;5077869;28;45810;-59
2022/05/05 05:43:34;;;;;;;;;8.00;7.25;;;;;20.10;39.71;101682.75;5077990;28;45310;-57
2022/05/05 05:46:00;;;;;;;;;7.75;7.75;;;;;20.10;39.98;101696.75;5076939;27;45284;-58
2022/05/05 05:48:26;;;;;;;;;10.25;8.00;;;;;20.08;40.35;101693.31;5077752;28;45405;-59
2022/05/05 05:50:51;;;;;;;;;11.75;8.25;;;;;20.08;40.31;101682.78;5077738;28;45342;-56
2022/05/05 05:53:16;;;;;;;;;8.25;8.25;;;;;20.08;39.95;101688.06;5078219;27;45316;-56
2022/05/05 05:55:41;;;;;;;;;9.25;9.25;;;;;20.10;40.45;101686.22;5077231;28;49184;-56
2022/05/05 05:58:07;;;;;;;;;9.67;9.67;;;;;20.10;40.36;101686.22;5077208;28;52351;-56
2022/05/05 06:00:33;;;;;;;;;10.00;9.00;;;;;20.10;40.19;101690.66;5077299;28;45274;-56
2022/05/05 06:05:43;;;;;;;;;16.00;11.00;;;;;20.10;39.84;101685.38;5077363;28;45390;-56
2022/05/05 06:08:08;;;;;;;;;10.25;8.25;;;;;20.10;40.17;101694.13;5077402;27;45368;-57
2022/05/05 06:10:34;;;;;;;;;13.50;11.50;;;;;20.10;40.31;101691.50;5077474;27;45227;-56
2022/05/05 06:12:59;;;;;;;;;10.00;10.00;;;;;20.10;40.40;101688.88;5077592;28;45280;-55
2022/05/05 06:15:25;;;;;;;;;9.75;9.75;;;;;20.08;40.35;101688.94;5077292;27;45828;-58
2022/05/05 06:17:52;;;;;;;;;12.50;11.50;;;;;20.10;40.21;101690.66;5077306;27;45238;-56
2022/05/05 06:20:18;;;;;;;;;7.75;7.75;;;;;20.11;40.75;101687.09;5077698;27;45433;-53
2022/05/05 06:22:44;;;;;;;;;6.25;5.50;;;;;20.10;40.66;101690.66;5077452;27;45444;-50
2022/05/05 06:25:13;;;;;;;;;8.00;8.00;;;;;20.12;40.73;101701.97;5075361;28;47541;-55
2022/05/05 06:27:39;;;;;;;;;15.75;12.75;;;;;20.12;40.84;101705.47;5077070;28;45304;-58
2022/05/05 06:30:07;;;;;;;;;13.00;11.00;;;;;20.12;40.43;101700.19;5077326;27;45231;-56
2022/05/05 06:32:33;;;;;;;;;13.25;10.00;;;;;20.11;40.38;101705.53;5077222;27;45544;-54
2022/05/05 06:34:58;;;;;;;;;9.50;8.25;;;;;20.11;40.70;101708.16;5076889;28;45474;-53
2022/05/05 06:37:24;;;;;;;;;11.50;9.25;;;;;20.12;40.84;101709.88;5076916;27;45418;-54
2022/05/05 06:39:50;;;;;;;;;9.25;9.25;;;;;20.10;40.73;101711.69;5077329;27;45298;-51
2022/05/05 06:42:16;;;;;;;;;8.25;7.75;;;;;20.13;40.82;101716.81;5077453;27;45499;-57
2022/05/05 06:44:42;;;;;;;;;10.75;10.00;;;;;20.12;40.90;101713.34;5076773;28;46176;-57
2022/05/05 06:47:07;;;;;;;;;12.25;11.00;;;;;20.12;40.97;101720.41;5076800;27;45231;-58
2022/05/05 06:49:33;;;;;;;;;9.50;8.00;;;;;20.13;40.89;101727.34;5077032;28;45431;-61
2022/05/05 06:52:02;;;;;;;;;11.25;9.00;;;;;20.13;40.29;101722.09;5077040;28;45553;-58
2022/05/05 06:54:27;;;;;;;;;16.50;14.00;;;;;20.12;40.70;101726.50;5076678;27;46275;-58
2022/05/05 06:56:54;;;;;;;;;11.00;11.00;;;;;20.13;40.80;101722.09;5076649;27;45469;-53
2022/05/05 06:59:20;;;;;;;;;13.25;12.00;;;;;20.14;41.06;101723.81;5077108;27;45417;-58
2022/05/05 07:01:56;;;;;;;;;12.50;11.75;;;;;20.13;41.22;101722.09;5076854;28;45286;-58
2022/05/05 07:07:13;;;;;;;;;16.50;13.75;;;;;20.12;40.83;101723.88;5076632;28;45744;-50
2022/05/05 07:12:23;;;;;;;;;11.75;9.75;;;;;20.12;40.92;101730.94;5076785;28;45342;-54
2022/05/05 07:14:48;;;;;;;;;11.25;10.00;;;;;20.13;40.93;101732.63;5076263;28;45646;-51
2022/05/05 07:17:14;;;;;;;;;11.75;10.50;;;;;20.14;41.12;101742.22;5076398;28;45502;-51
2022/05/05 07:19:40;;;;;;;;;13.50;11.75;;;;;20.14;41.03;101750.13;5076421;28;45455;-49
2022/05/05 07:22:07;;;;;;;;;10.25;9.75;;;;;20.15;41.24;101746.56;5075444;28;45465;-47
2022/05/05 07:24:34;;;;;;;;;16.25;12.75;;;;;20.14;41.05;101751.00;5076177;27;46240;-45
2022/05/05 07:27:01;;;;;;;;;14.75;11.50;;;;;20.14;40.99;101748.38;5076248;27;45857;-45
2022/05/05 07:29:26;;;;;;;;;11.25;11.25;;;;;20.15;41.09;101746.56;5076282;27;45265;-45
2022/05/05 07:31:51;;;;;;;;;12.75;11.50;;;;;20.14;41.09;101745.72;5075463;28;45299;-50
2022/05/05 07:34:18;;;;;;;;;13.00;11.50;;;;;20.15;41.11;101751.84;5076211;27;45918;-49
2022/05/05 07:36:44;;;;;;;;;12.25;10.75;;;;;20.16;41.48;101758.81;5076200;28;45927;-52
2022/05/05 07:39:10;;;;;;;;;15.75;13.75;;;;;20.15;41.31;101749.22;5076292;27;45359;-50
2022/05/05 07:41:35;;;;;;;;;15.25;13.25;;;;;20.16;41.34;101761.47;5076464;27;45469;-48
2022/05/05 07:44:01;;;;;;;;;13.75;10.00;;;;;20.15;41.01;101757.97;5075880;28;46686;-53
2022/05/05 07:46:27;;;;;;;;;10.75;10.00;;;;;20.15;40.90;101751.84;5076006;28;45378;-52
2022/05/05 07:48:53;;;;;;;;;14.00;11.75;;;;;20.16;41.55;101764.97;5076432;28;45344;-51
2022/05/05 07:51:19;;;;;;;;;14.25;14.00;;;;;20.16;41.49;101761.47;5076181;28;45394;-56
2022/05/05 07:54:34;;;;;;;;;12.25;12.25;;;;;20.14;41.33;101768.53;5075822;27;46235;-52
2022/05/05 07:56:33;;;;;;;;;13.00;10.00;;;;;20.17;41.28;101758.78;5075785;28;45340;-59
2022/05/05 07:58:59;;;;;;;;;14.50;12.50;;;;;20.18;41.00;101765.72;5076028;27;45327;-56
2022/05/05 08:01:24;;;;;;;;;12.50;11.50;;;;;20.18;41.20;101762.25;5076348;28;45524;-52
2022/05/05 08:03:49;;;;;;;;;12.50;12.50;;;;;20.18;41.51;101763.09;5075705;27;45435;-46
2022/05/05 08:06:15;;;;;;;;;15.00;12.50;;;;;20.17;41.23;101763.19;5075769;28;45309;-50
2022/05/05 08:08:40;;;;;;;;;13.25;12.50;;;;;20.21;41.28;101763.00;5076294;27;45828;-45
2022/05/05 08:11:05;;;;;;;;;10.75;9.25;;;;;20.23;41.18;101770.81;5079664;27;45669;-47
2022/05/05 08:13:32;;;;;;;;;11.75;11.75;;;;;20.24;40.87;101772.53;5079018;28;45399;-50
2022/05/05 08:15:58;;;;;;;;;11.50;11.25;;;;;20.21;40.82;101768.25;5078953;27;45337;-46
2022/05/05 08:18:23;;;;;;;;;12.25;11.00;;;;;20.27;40.89;101771.59;5079580;27;45317;-52
2022/05/05 08:20:48;;;;;;;;;12.25;9.50;;;;;20.27;41.03;101782.94;5079225;28;45263;-52
2022/05/05 08:23:14;;;;;;;;;14.00;12.00;;;;;20.24;41.51;101770.78;5078544;27;53153;-53
2022/05/05 08:28:29;;;;;;;;;10.50;10.00;;;;;20.31;41.26;101781.06;5079348;28;45361;-45
2022/05/05 08:30:58;;;;;;;;;13.75;11.00;;;;;20.32;40.69;101773.13;5079451;27;45323;-51
2022/05/05 08:33:27;;;;;;;;;12.75;12.75;;;;;20.33;41.08;101777.47;5079113;27;45220;-48
2022/05/05 08:35:52;;;;;;;;;15.25;13.00;;;;;20.34;41.04;101779.16;5079200;27;45963;-47
2022/05/05 08:38:18;;;;;;;;;10.75;10.75;;;;;20.35;40.95;101770.34;5078943;27;45442;-49
2022/05/05 08:40:43;;;;;;;;;10.25;10.25;;;;;20.36;41.00;101776.47;5077747;28;45660;-52
2022/05/05 08:43:09;;;;;;;;;11.50;11.50;;;;;20.37;40.85;101779.03;5078505;28;46083;-53
2022/05/05 08:45:37;;;;;;;;;11.00;9.50;;;;;20.37;40.87;101773.78;5078694;27;45310;-56
2022/05/05 08:48:07;;;;;;;;;11.00;10.00;;;;;20.39;41.26;101777.19;5078852;27;45317;-58
2022/05/05 08:50:35;;;;;;;;;11.50;11.50;;;;;20.41;40.64;101781.56;5078835;27;45471;-56
2022/05/05 08:53:02;;;;;;;;;13.25;12.00;;;;;20.43;40.71;101782.34;5078440;27;45348;-48
2022/05/05 08:55:29;;;;;;;;;12.00;10.00;;;;;20.42;41.00;101781.47;5078524;27;45318;-51
2022/05/05 08:57:55;;;;;;;;;13.00;10.50;;;;;20.41;40.88;101784.19;5079016;28;45333;-46
2022/05/05 09:00:20;;;;;;;;;11.50;10.50;;;;;20.43;41.00;101788.47;5078750;27;45161;-46
2022/05/05 09:02:53;;;;;;;;;11.50;10.50;;;;;20.44;40.62;101781.44;5078300;27;46131;-49
2022/05/05 09:05:45;;;;;;;;;12.00;11.50;;;;;20.43;40.93;101783.19;5078455;27;45801;-46
2022/05/05 09:08:30;;;;;;;;;12.75;10.25;;;;;20.44;40.77;101794.59;5078572;27;45344;-43
2022/05/05 09:10:58;;;;;;;;;12.00;11.50;;;;;20.44;41.19;101791.97;5077030;28;45390;-45
2022/05/05 09:13:25;;;;;;;;;10.00;9.00;;;;;20.43;40.77;101793.72;5078545;28;46048;-57
2022/05/05 09:15:51;;;;;;;;;12.25;11.00;;;;;20.41;40.68;101785.03;5078251;27;46050;-57
2022/05/05 09:18:29;;;;;;;;;10.00;9.50;;;;;20.44;40.62;101794.59;5078281;27;45412;-56
2022/05/05 09:20:56;;;;;;;;;13.00;13.00;;;;;20.45;41.05;101788.44;5077487;27;45376;-54
2022/05/05 09:23:32;;;;;;;;;6.00;5.25;;;;;20.45;41.06;101791.06;5077550;27;45353;-56
2022/05/05 09:25:59;;;;;;;;;10.75;10.75;;;;;20.44;40.93;101784.06;5078320;27;45877;-58
2022/05/05 09:28:32;;;;;;;;;13.75;12.75;;;;;20.43;41.16;101788.47;5078350;27;45319;-55
2022/05/05 09:31:04;;;;;;;;;9.25;9.25;;;;;20.45;41.15;101785.78;5078743;27;45260;-52
2022/05/05 09:33:36;;;;;;;;;13.50;9.25;;;;;20.44;40.56;101784.91;5077841;27;46071;-48
2022/05/05 09:36:05;;;;;;;;;12.50;10.00;;;;;20.43;40.74;101793.72;5076479;28;45723;-59
2022/05/05 09:39:04;;;;;;;;;10.50;10.50;;;;;20.45;41.00;101785.78;5077986;28;45417;-58
2022/05/05 09:41:32;;;;;;;;;8.50;8.50;;;;;20.45;40.65;101794.53;5077929;27;45456;-48
2022/05/05 09:44:12;;;;;;;;;10.50;10.25;;;;;20.45;40.47;101797.16;5077980;27;45516;-58
2022/05/05 09:46:38;;;;;;;;;5.50;5.50;;;;;20.45;41.02;101794.53;5076723;28;45358;-54
2022/05/05 09:49:07;;;;;;;;;10.50;10.50;;;;;20.46;40.62;101795.38;5077877;28;45302;-53
2022/05/05 09:51:35;;;;;;;;;11.00;9.50;;;;;20.46;40.91;101787.47;5076690;28;45624;-50
2022/05/05 09:59:46;;;;;;;;;9.00;9.00;;;;;20.43;40.48;101791.09;5077775;28;45514;-57
2022/05/05 10:02:27;;;;;;;;;9.00;8.00;;;;;20.44;40.43;101792.81;5077813;27;45463;-53
2022/05/05 10:04:55;;;;;;;;;7.25;7.25;;;;;20.42;40.43;101786.75;5077182;27;46360;-57
2022/05/05 10:07:22;;;;;;;;;9.25;8.25;;;;;20.42;40.55;101789.38;5077450;27;45446;-56
2022/05/05 10:09:49;;;;;;;;;8.00;8.00;;;;;20.45;40.81;101796.31;5077493;27;45418;-53
2022/05/05 10:12:17;;;;;;;;;8.00;8.00;;;;;20.43;40.40;101793.72;5076325;28;45336;-55
2022/05/05 10:14:43;;;;;;;;;9.25;9.25;;;;;20.45;40.59;101801.59;5077034;27;46506;-58
2022/05/05 10:17:09;;;;;;;;;7.00;7.00;;;;;20.45;40.20;101798.97;5077269;27;45279;-53
2022/05/05 10:19:36;;;;;;;;;8.25;6.25;;;;;20.45;40.29;101806.84;5077447;27;45277;-46
2022/05/05 10:22:08;;;;;;;;;7.00;7.00;;;;;20.44;40.50;101792.81;5077695;28;45483;-49
2022/05/05 10:24:50;;;;;;;;;7.00;7.00;;;;;20.44;40.15;101803.34;5075743;28;48138;-55
2022/05/05 10:27:16;;;;;;;;;8.00;8.00;;;;;20.44;40.32;101789.34;5077239;28;45316;-51
2022/05/05 10:29:43;;;;;;;;;5.25;5.00;;;;;20.45;40.27;101796.31;5077351;27;45372;-55
2022/05/05 10:32:10;;;;;;;;;8.00;7.00;;;;;20.45;40.09;101796.31;5077028;27;45234;-55
2022/05/05 10:34:45;;;;;;;;;5.75;5.75;;;;;20.44;40.47;101789.34;5077019;27;47511;-57
2022/05/05 10:37:17;;;;;;;;;7.00;6.00;;;;;20.42;39.95;101794.66;5077020;27;45222;-58
2022/05/05 10:39:43;;;;;;;;;6.00;6.00;;;;;20.43;40.29;101787.63;5076929;27;45583;-58
2022/05/05 10:42:20;;;;;;;;;6.75;6.75;;;;;20.44;39.81;101799.88;5077284;28;45231;-57
2022/05/05 10:45:12;;;;;;;;;6.50;6.00;;;;;20.43;39.91;101790.25;5076785;27;45957;-51
2022/05/05 10:47:51;;;;;;;;;6.75;6.75;;;;;20.44;39.99;101797.25;5076959;27;45281;-53
2022/05/05 10:50:34;;;;;;;;;5.00;4.25;;;;;20.43;39.52;101796.38;5077052;28;45221;-56
2022/05/05 10:53:00;;;;;;;;;6.50;6.50;;;;;20.43;39.80;101792.88;5077377;28;45241;-56
2022/05/05 10:55:32;;;;;;;;;6.00;4.00;;;;;20.43;39.70;101788.47;5076754;27;45260;-56
2022/05/05 10:57:58;;;;;;;;;4.25;4.25;;;;;20.45;40.07;101791.06;5076741;27;45478;-54
2022/05/05 11:00:24;;;;;;;;;5.25;5.25;;;;;20.46;39.81;101791.00;5075610;28;45359;-57
2022/05/05 11:02:58;;;;;;;;;4.00;4.00;;;;;20.46;39.56;101784.84;5075743;28;45453;-59
2022/05/05 11:05:27;;;;;;;;;5.00;5.00;;;;;20.46;39.94;101776.94;5076637;28;46912;-56
2022/05/05 11:08:19;;;;;;;;;5.75;5.75;;;;;20.47;39.71;101786.56;5076550;27;45410;-53
2022/05/05 11:10:48;;;;;;;;;6.00;6.00;;;;;20.47;39.87;101783.94;5092189;27;45334;-54
2022/05/05 11:13:33;;;;;;;;;4.25;4.00;;;;;20.47;39.35;101783.94;5076607;28;45579;-49
2022/05/05 11:22:17;;;;;;;;;5.00;5.00;;;;;20.48;39.52;101783.00;5076717;28;45429;-52
2022/05/05 11:24:46;;;;;;;;;7.50;6.00;;;;;20.47;39.68;101779.53;5076516;27;45551;-51
2022/05/05 11:27:14;;;;;;;;;4.75;4.75;;;;;20.46;39.73;101783.09;5076206;27;46083;-51
2022/05/05 11:29:40;;;;;;;;;7.50;5.50;;;;;20.45;39.62;101781.38;5076321;27;45251;-48
2022/05/05 11:32:08;;;;;;;;;6.25;6.25;;;;;20.45;39.16;101778.75;5076417;28;45219;-50
2022/05/05 11:34:34;;;;;;;;;7.00;5.00;;;;;20.46;39.05;101777.81;5076828;27;45271;-49
2022/05/05 11:37:00;;;;;;;;;3.50;3.50;;;;;20.46;39.12;101787.47;5076222;27;46092;-49
2022/05/05 11:39:27;;;;;;;;;5.50;5.50;;;;;20.46;39.26;101776.94;5076179;27;45346;-52
2022/05/05 11:42:01;;;;;;;;;6.00;6.00;;;;;20.45;39.29;101780.53;5076224;27;45435;-45
2022/05/05 11:44:27;;;;;;;;;5.00;5.00;;;;;20.45;38.94;101778.75;5077845;27;45495;-53
2022/05/05 11:46:54;;;;;;;;;5.00;5.00;;;;;20.45;39.45;101775.25;5079648;27;47171;-50
2022/05/05 11:49:20;;;;;;;;;4.75;4.75;;;;;20.46;39.33;101777.81;5079653;28;46004;-48
2022/05/05 11:51:45;;;;;;;;;4.25;4.25;;;;;20.45;39.32;101776.09;5079762;27;45310;-56
2022/05/05 11:54:16;;;;;;;;;4.00;4.00;;;;;20.46;39.06;101774.31;5079792;28;45268;-57
2022/05/05 11:56:47;;;;;;;;;6.25;6.25;;;;;20.47;39.00;101770.75;5079361;27;45811;-57
2022/05/05 12:02:12;;;;;;;;;5.25;4.25;;;;;20.48;38.91;101778.63;5080154;28;45414;-52